createdAt,value
2018-09-09T00:00:30.406Z,9.60
2018-09-09T00:02:58.693Z,9.33
2018-09-09T00:05:26.896Z,8.60
2018-09-09T00:07:55.081Z,9.37
2018-09-09T00:10:23.246Z,9.63
2018-09-09T00:12:51.481Z,9.37
2018-09-09T00:15:19.662Z,9.67
2018-09-09T00:17:47.885Z,10.03
2018-09-09T00:20:16.062Z,10.13
2018-09-09T00:22:44.292Z,11.67
2018-09-09T00:25:12.421Z,12.70
2018-09-09T00:27:40.604Z,12.27
2018-09-09T00:30:08.781Z,11.23
2018-09-09T00:32:36.965Z,11.27
2018-09-09T00:35:05.233Z,10.97
2018-09-09T00:37:33.433Z,10.17
2018-09-09T00:40:01.605Z,11.03
2018-09-09T00:42:29.797Z,10.50
2018-09-09T00:44:58.061Z,12.17
2018-09-09T00:47:26.264Z,11.43
2018-09-09T00:49:59.805Z,10.93
2018-09-09T00:52:33.350Z,12.87
2018-09-09T00:55:01.525Z,11.20
2018-09-09T00:57:29.733Z,11.37
2018-09-09T00:59:57.933Z,11.63
2018-09-09T01:02:26.125Z,12.60
2018-09-09T01:04:54.308Z,12.97
2018-09-09T01:07:22.488Z,12.40
2018-09-09T01:09:50.708Z,12.90
2018-09-09T01:12:18.973Z,13.90
2018-09-09T01:14:47.493Z,13.13
2018-09-09T01:17:15.746Z,12.97
2018-09-09T01:19:43.918Z,14.30
2018-09-09T01:22:12.134Z,13.57
2018-09-09T01:24:40.325Z,14.70
2018-09-09T01:27:08.628Z,13.73
2018-09-09T01:29:36.889Z,13.63
2018-09-09T01:32:05.105Z,14.50
2018-09-09T01:34:33.293Z,15.57
2018-09-09T01:37:01.561Z,14.90
2018-09-09T01:39:30.560Z,15.00
2018-09-09T01:41:58.752Z,15.40
2018-09-09T01:44:27.029Z,14.83
2018-09-09T01:46:55.241Z,15.57
2018-09-09T01:49:23.413Z,14.97
2018-09-09T01:51:51.594Z,16.13
2018-09-09T01:54:19.771Z,15.63
2018-09-09T01:56:47.975Z,15.13
2018-09-09T01:59:16.149Z,16.00
2018-09-09T02:01:44.350Z,15.80
2018-09-09T02:04:12.537Z,14.90
2018-09-09T02:06:40.714Z,15.60
2018-09-09T02:09:08.889Z,15.10
2018-09-09T02:11:37.085Z,13.03
2018-09-09T02:14:05.270Z,11.90
2018-09-09T02:16:33.558Z,12.50
2018-09-09T02:19:01.734Z,12.60
2018-09-09T02:21:29.906Z,11.50
2018-09-09T02:23:58.122Z,12.27
2018-09-09T02:26:26.409Z,12.90
2018-09-09T02:28:54.601Z,11.53
2018-09-09T02:31:22.885Z,12.27
2018-09-09T02:33:51.290Z,12.87
2018-09-09T02:36:19.449Z,12.73
2018-09-09T02:38:47.654Z,13.00
2018-09-09T02:41:15.929Z,12.80
2018-09-09T02:43:44.222Z,14.07
2018-09-09T02:46:12.320Z,14.17
2018-09-09T02:48:40.497Z,14.90
2018-09-09T02:51:08.677Z,16.00
2018-09-09T02:53:36.857Z,15.83
2018-09-09T02:56:10.721Z,16.20
2018-09-09T02:58:38.884Z,16.47
2018-09-09T03:01:07.450Z,15.10
2018-09-09T03:03:35.638Z,17.50
2018-09-09T03:06:03.818Z,15.10
2018-09-09T03:08:32.004Z,15.93
2018-09-09T03:11:05.481Z,16.20
2018-09-09T03:13:33.946Z,17.63
2018-09-09T03:16:02.128Z,16.37
2018-09-09T03:18:30.418Z,16.40
2018-09-09T03:20:58.590Z,16.10
2018-09-09T03:23:26.789Z,16.53
2018-09-09T03:25:54.970Z,16.40
2018-09-09T03:28:23.605Z,16.50
2018-09-09T03:30:51.739Z,15.83
2018-09-09T03:33:19.917Z,17.63
2018-09-09T03:35:48.158Z,16.23
2018-09-09T03:38:16.669Z,17.33
2018-09-09T03:40:44.838Z,16.47
2018-09-09T03:43:13.039Z,15.70
2018-09-09T03:45:41.225Z,16.67
2018-09-09T03:48:09.409Z,15.00
2018-09-09T03:50:37.589Z,14.80
2018-09-09T03:53:05.823Z,16.17
2018-09-09T03:55:34.049Z,16.00
2018-09-09T03:58:02.505Z,14.63
2018-09-09T04:00:30.894Z,14.87
2018-09-09T04:02:59.085Z,16.20
2018-09-09T04:05:27.258Z,16.93
2018-09-09T04:07:55.509Z,15.80
2018-09-09T04:10:23.761Z,15.90
2018-09-09T04:12:51.995Z,16.37
2018-09-09T04:15:20.165Z,15.63
2018-09-09T04:17:48.425Z,15.33
2018-09-09T04:20:16.598Z,15.50
2018-09-09T04:22:44.810Z,15.40
2018-09-09T04:25:13.006Z,16.77
2018-09-09T04:27:41.186Z,15.90
2018-09-09T04:30:09.461Z,15.67
2018-09-09T04:32:37.656Z,14.90
2018-09-09T04:35:05.846Z,15.03
2018-09-09T04:37:34.126Z,15.10
2018-09-09T04:40:07.675Z,14.73
2018-09-09T04:42:35.877Z,15.60
2018-09-09T04:45:04.113Z,14.63
2018-09-09T04:47:32.402Z,15.10
2018-09-09T04:50:00.659Z,14.33
2018-09-09T04:52:28.873Z,15.13
2018-09-09T04:54:57.157Z,14.70
2018-09-09T04:57:25.453Z,13.77
2018-09-09T04:59:53.633Z,14.43
2018-09-09T05:02:21.826Z,14.20
2018-09-09T05:04:50.102Z,14.90
2018-09-09T05:07:18.297Z,14.10
2018-09-09T05:09:46.581Z,14.60
2018-09-09T05:12:14.801Z,13.97
2018-09-09T05:14:43.057Z,14.90
2018-09-09T05:17:11.254Z,13.73
2018-09-09T05:19:39.445Z,14.43
2018-09-09T05:22:07.633Z,14.40
2018-09-09T05:24:35.817Z,14.57
2018-09-09T05:27:04.101Z,14.57
2018-09-09T05:29:32.273Z,13.67
2018-09-09T05:32:00.457Z,12.83
2018-09-09T05:34:28.657Z,14.57
2018-09-09T05:36:56.838Z,15.30
2018-09-09T05:39:25.018Z,13.43
2018-09-09T05:41:53.230Z,13.77
2018-09-09T05:44:21.416Z,13.63
2018-09-09T05:46:49.693Z,14.03
2018-09-09T05:49:17.865Z,14.20
2018-09-09T05:51:46.049Z,13.67
2018-09-09T05:54:14.224Z,12.63
2018-09-09T05:56:42.413Z,11.67
2018-09-09T05:59:10.591Z,12.30
2018-09-09T06:01:38.774Z,12.93
2018-09-09T06:04:07.018Z,13.43
2018-09-09T06:06:35.220Z,12.90
2018-09-09T06:09:03.606Z,13.00
2018-09-09T06:11:31.791Z,13.80
2018-09-09T06:14:00.041Z,13.80
2018-09-09T06:16:28.225Z,13.67
2018-09-09T06:18:56.422Z,13.27
2018-09-09T06:21:24.601Z,12.70
2018-09-09T06:23:52.779Z,12.57
2018-09-09T06:26:20.961Z,13.53
2018-09-09T06:28:49.149Z,13.70
2018-09-09T06:31:17.431Z,12.80
2018-09-09T06:33:45.651Z,11.73
2018-09-09T06:36:13.813Z,12.90
2018-09-09T06:38:41.994Z,12.70
2018-09-09T06:41:10.237Z,12.93
2018-09-09T06:43:38.488Z,11.80
2018-09-09T06:46:06.696Z,11.70
2018-09-09T06:48:34.990Z,13.07
2018-09-09T06:51:03.441Z,12.33
2018-09-09T06:53:32.365Z,12.10
2018-09-09T06:56:00.551Z,12.37
2018-09-09T06:58:28.717Z,11.17
2018-09-09T07:00:56.938Z,11.30
2018-09-09T07:03:25.110Z,11.70
2018-09-09T07:05:53.401Z,13.33
2018-09-09T07:08:21.578Z,11.40
2018-09-09T07:10:49.893Z,12.10
2018-09-09T07:13:18.066Z,10.87
2018-09-09T07:15:46.269Z,12.00
2018-09-09T07:18:14.556Z,12.87
2018-09-09T07:20:42.837Z,11.73
2018-09-09T07:23:11.008Z,13.10
2018-09-09T07:25:39.303Z,11.50
2018-09-09T07:28:07.513Z,11.30
2018-09-09T07:30:35.714Z,12.53
2018-09-09T07:33:03.893Z,12.77
2018-09-09T07:35:32.073Z,13.00
2018-09-09T07:38:00.341Z,12.03
2018-09-09T07:40:28.742Z,11.90
2018-09-09T07:42:57.001Z,12.30
2018-09-09T07:45:25.197Z,11.50
2018-09-09T07:47:53.402Z,11.17
2018-09-09T07:50:21.669Z,11.37
2018-09-09T07:52:49.849Z,11.13
2018-09-09T07:55:18.031Z,11.53
2018-09-09T07:57:46.233Z,11.30
2018-09-09T08:00:14.419Z,10.37
2018-09-09T08:02:42.660Z,11.77
2018-09-09T08:05:10.857Z,11.37
2018-09-09T08:07:39.046Z,12.13
2018-09-09T08:10:07.311Z,10.87
2018-09-09T08:12:35.505Z,11.03
2018-09-09T08:15:03.789Z,10.97
2018-09-09T08:17:32.031Z,11.30
2018-09-09T08:20:00.328Z,10.50
2018-09-09T08:22:28.538Z,11.63
2018-09-09T08:24:56.789Z,11.10
2018-09-09T08:27:24.996Z,11.17
2018-09-09T08:29:53.173Z,10.60
2018-09-09T08:32:21.461Z,11.13
2018-09-09T08:34:49.725Z,10.90
2018-09-09T08:37:17.981Z,10.37
2018-09-09T08:39:46.225Z,10.23
2018-09-09T08:42:14.513Z,9.50
2018-09-09T08:44:42.686Z,10.77
2018-09-09T08:47:10.892Z,9.80
2018-09-09T08:49:39.213Z,11.30
2018-09-09T08:52:07.489Z,10.53
2018-09-09T08:54:35.669Z,12.10
2018-09-09T08:57:04.011Z,8.73
2018-09-09T09:00:35.385Z,11.30
2018-09-09T09:03:03.613Z,9.40
2018-09-09T09:05:31.881Z,9.93
2018-09-09T09:08:00.190Z,10.07
2018-09-09T09:10:28.361Z,9.60
2018-09-09T09:12:56.558Z,10.47
2018-09-09T09:15:25.162Z,9.80
2018-09-09T09:17:53.582Z,9.77
2018-09-09T09:20:21.809Z,9.37
2018-09-09T09:22:50.018Z,9.43
2018-09-09T09:25:18.289Z,9.60
2018-09-09T09:27:46.573Z,8.50
2018-09-09T09:30:15.069Z,8.30
2018-09-09T09:32:47.254Z,9.40
2018-09-09T09:35:15.453Z,9.03
2018-09-09T09:37:44.029Z,9.03
2018-09-09T09:40:12.263Z,8.43
2018-09-09T09:42:40.529Z,8.60
2018-09-09T09:45:08.810Z,8.47
2018-09-09T09:47:37.097Z,7.90
2018-09-09T09:50:05.397Z,8.27
2018-09-09T09:52:33.677Z,8.13
2018-09-09T09:55:01.912Z,8.13
2018-09-09T09:57:30.052Z,8.13
2018-09-09T09:59:58.354Z,7.50
2018-09-09T10:02:26.563Z,7.40
2018-09-09T10:04:54.801Z,7.40
2018-09-09T10:07:22.998Z,7.83
2018-09-09T10:09:51.185Z,6.73
2018-09-09T10:12:19.370Z,7.03
2018-09-09T10:14:47.566Z,6.63
2018-09-09T10:17:15.890Z,7.87
2018-09-09T10:19:44.138Z,7.67
2018-09-09T10:22:13.485Z,7.13
2018-09-09T10:24:41.685Z,7.90
2018-09-09T10:27:09.865Z,6.70
2018-09-09T10:29:38.141Z,6.60
2018-09-09T10:32:06.474Z,6.07
2018-09-09T10:34:34.685Z,5.83
2018-09-09T10:37:02.899Z,6.43
2018-09-09T10:39:31.163Z,6.73
2018-09-09T10:41:59.361Z,5.97
2018-09-09T10:44:27.649Z,5.87
2018-09-09T10:46:55.835Z,6.43
2018-09-09T10:49:24.177Z,6.20
2018-09-09T10:51:52.533Z,5.40
2018-09-09T10:54:20.814Z,5.97
2018-09-09T10:56:49.093Z,7.20
2018-09-09T10:59:17.482Z,6.00
2018-09-09T11:01:45.775Z,6.37
2018-09-09T11:04:14.054Z,6.50
2018-09-09T11:06:42.258Z,6.50
2018-09-09T11:09:10.821Z,6.20
2018-09-09T11:11:39.034Z,5.83
2018-09-09T11:14:07.351Z,6.30
2018-09-09T11:16:35.683Z,6.10
2018-09-09T11:19:03.905Z,6.80
2018-09-09T11:21:32.691Z,6.67
2018-09-09T11:24:08.760Z,6.50
2018-09-09T11:26:37.571Z,6.40
2018-09-09T11:29:06.774Z,6.17
2018-09-09T11:31:35.182Z,6.93
2018-09-09T11:36:38.136Z,6.23
2018-09-09T11:39:08.114Z,7.37
2018-09-09T11:41:36.463Z,6.90
2018-09-09T11:44:04.777Z,6.27
2018-09-09T11:46:33.371Z,6.63
2018-09-09T11:49:02.017Z,6.10
2018-09-09T11:51:30.233Z,6.80
2018-09-09T11:53:58.555Z,6.80
2018-09-09T11:56:27.430Z,6.30
2018-09-09T11:58:56.031Z,6.37
2018-09-09T12:01:24.324Z,6.70
2018-09-09T12:03:52.537Z,6.77
2018-09-09T12:06:20.781Z,6.80
2018-09-09T12:08:51.173Z,6.70
2018-09-09T12:11:19.438Z,6.10
2018-09-09T12:13:48.435Z,6.23
2018-09-09T12:16:16.717Z,6.10
2018-09-09T12:18:45.069Z,6.53
2018-09-09T12:21:13.281Z,5.77
2018-09-09T12:23:41.616Z,6.30
2018-09-09T12:26:09.810Z,5.40
2018-09-09T12:28:38.106Z,6.43
2018-09-09T12:31:06.487Z,6.97
2018-09-09T12:33:34.822Z,5.87
2018-09-09T12:36:03.087Z,6.40
2018-09-09T12:38:31.337Z,7.97
2018-09-09T12:40:59.630Z,6.20
2018-09-09T12:43:33.291Z,11.93
2018-09-09T12:46:06.673Z,8.60
2018-09-09T12:48:40.274Z,6.50
2018-09-09T12:51:08.637Z,5.87
2018-09-09T12:53:36.942Z,6.00
2018-09-09T12:56:05.373Z,6.87
2018-09-09T12:58:33.659Z,5.50
2018-09-09T13:01:01.886Z,5.63
2018-09-09T13:03:30.207Z,6.03
2018-09-09T13:05:58.479Z,6.53
2018-09-09T13:08:26.749Z,5.87
2018-09-09T13:10:55.022Z,5.80
2018-09-09T13:13:23.214Z,5.83
2018-09-09T13:15:51.401Z,6.43
2018-09-09T13:18:20.106Z,5.83
2018-09-09T13:20:48.277Z,5.93
2018-09-09T13:23:16.454Z,5.47
2018-09-09T13:25:44.679Z,5.70
2018-09-09T13:28:13.030Z,5.00
2018-09-09T13:30:41.227Z,6.50
2018-09-09T13:33:09.569Z,5.60
2018-09-09T13:35:37.742Z,6.23
2018-09-09T13:38:06.062Z,5.80
2018-09-09T13:40:34.318Z,5.43
2018-09-09T13:43:02.634Z,6.40
2018-09-09T13:45:30.843Z,5.77
2018-09-09T13:47:59.136Z,5.87
2018-09-09T13:50:27.342Z,6.27
2018-09-09T13:52:55.599Z,6.30
2018-09-09T13:55:23.774Z,5.90
2018-09-09T13:57:52.018Z,5.93
2018-09-09T14:00:20.199Z,6.17
2018-09-09T14:02:48.398Z,6.40
2018-09-09T14:05:16.585Z,5.90
2018-09-09T14:07:45.738Z,6.40
2018-09-09T14:10:14.032Z,6.37
2018-09-09T14:12:42.209Z,5.87
2018-09-09T14:15:10.511Z,6.37
2018-09-09T14:17:38.693Z,5.77
2018-09-09T14:20:06.906Z,5.53
2018-09-09T14:22:35.287Z,6.27
2018-09-09T14:25:03.453Z,6.27
2018-09-09T14:27:31.741Z,6.10
2018-09-09T14:30:00.030Z,6.57
2018-09-09T14:32:28.225Z,5.80
2018-09-09T14:34:56.489Z,5.90
2018-09-09T14:37:24.693Z,6.20
2018-09-09T14:39:58.715Z,6.00
2018-09-09T14:42:26.902Z,6.20
2018-09-09T14:44:55.214Z,5.70
2018-09-09T14:47:23.581Z,5.77
2018-09-09T14:49:51.750Z,7.97
2018-09-09T14:52:19.953Z,5.90
2018-09-09T14:54:48.154Z,6.30
2018-09-09T14:57:16.336Z,5.90
2018-09-09T14:59:44.785Z,5.67
2018-09-09T15:02:13.010Z,6.27
2018-09-09T15:04:41.316Z,6.00
2018-09-09T15:07:09.582Z,6.17
2018-09-09T15:09:37.969Z,5.93
2018-09-09T15:12:06.290Z,6.47
2018-09-09T15:14:34.631Z,5.60
2018-09-09T15:17:03.118Z,6.10
2018-09-09T15:19:31.378Z,5.67
2018-09-09T15:21:59.721Z,5.50
2018-09-09T15:24:27.905Z,6.30
2018-09-09T15:26:56.119Z,5.97
2018-09-09T15:29:24.374Z,6.67
2018-09-09T15:31:52.549Z,5.70
2018-09-09T15:34:20.789Z,5.93
2018-09-09T15:36:48.898Z,6.20
2018-09-09T15:39:17.126Z,5.63
2018-09-09T15:41:45.420Z,5.33
2018-09-09T15:44:13.591Z,5.90
2018-09-09T15:46:41.778Z,5.60
2018-09-09T15:49:09.955Z,5.70
2018-09-09T15:51:38.186Z,5.37
2018-09-09T15:54:06.454Z,5.67
2018-09-09T15:56:34.649Z,5.40
2018-09-09T15:59:02.926Z,5.37
2018-09-09T16:01:31.121Z,5.73
2018-09-09T16:03:59.401Z,5.70
2018-09-09T16:06:27.594Z,5.87
2018-09-09T16:08:55.784Z,5.70
2018-09-09T16:11:23.969Z,6.00
2018-09-09T16:13:52.176Z,6.13
2018-09-09T16:16:20.346Z,6.60
2018-09-09T16:18:48.607Z,6.43
2018-09-09T16:21:16.854Z,5.40
2018-09-09T16:23:45.110Z,5.90
2018-09-09T16:26:13.416Z,5.90
2018-09-09T16:28:41.689Z,6.30
2018-09-09T16:31:10.061Z,5.80
2018-09-09T16:33:38.301Z,6.30
2018-09-09T16:36:06.565Z,6.13
2018-09-09T16:38:34.837Z,6.17
2018-09-09T16:41:03.029Z,6.53
2018-09-09T16:43:31.302Z,6.07
2018-09-09T16:45:59.461Z,5.83
2018-09-09T16:48:44.315Z,6.83
2018-09-09T16:51:12.562Z,5.63
2018-09-09T16:53:40.761Z,6.57
2018-09-09T16:56:09.053Z,5.80
2018-09-09T16:58:37.345Z,6.10
2018-09-09T17:01:05.667Z,6.90
2018-09-09T17:03:33.914Z,5.80
2018-09-09T17:06:02.193Z,6.70
2018-09-09T17:08:30.414Z,7.00
2018-09-09T17:10:58.662Z,5.77
2018-09-09T17:13:26.878Z,5.83
2018-09-09T17:15:55.182Z,6.40
2018-09-09T17:18:23.566Z,6.43
2018-09-09T17:20:51.859Z,6.20
2018-09-09T17:23:20.122Z,6.57
2018-09-09T17:25:48.406Z,6.10
2018-09-09T17:28:16.590Z,6.87
2018-09-09T17:30:49.163Z,6.50
2018-09-09T17:33:17.373Z,6.57
2018-09-09T17:35:45.653Z,6.23
2018-09-09T17:38:13.834Z,7.00
2018-09-09T17:40:42.025Z,6.83
2018-09-09T17:43:10.213Z,6.53
2018-09-09T17:45:38.513Z,6.27
2018-09-09T17:48:06.798Z,6.57
2018-09-09T17:50:35.071Z,6.60
2018-09-09T17:53:03.401Z,6.63
2018-09-09T17:55:31.738Z,6.53
2018-09-09T17:57:59.949Z,6.37
2018-09-09T18:00:28.125Z,6.30
2018-09-09T18:02:56.322Z,6.27
2018-09-09T18:05:24.485Z,6.77
2018-09-09T18:07:52.698Z,7.57
2018-09-09T18:10:20.869Z,8.67
2018-09-09T18:12:49.041Z,6.60
2018-09-09T18:15:17.210Z,7.20
2018-09-09T18:17:45.462Z,6.60
2018-09-09T18:20:13.800Z,7.30
2018-09-09T18:22:41.975Z,8.17
2018-09-09T18:25:10.113Z,10.10
2018-09-09T18:27:38.451Z,9.50
2018-09-09T18:30:06.707Z,11.23
2018-09-09T18:32:34.894Z,7.47
2018-09-09T18:35:03.107Z,8.97
2018-09-09T18:37:31.242Z,7.03
2018-09-09T18:39:59.399Z,7.40
2018-09-09T18:42:27.577Z,6.67
2018-09-09T18:44:55.768Z,6.20
2018-09-09T18:47:23.918Z,6.57
2018-09-09T18:49:52.193Z,8.10
2018-09-09T18:52:20.457Z,7.77
2018-09-09T18:54:48.625Z,9.20
2018-09-09T18:57:16.840Z,12.30
2018-09-09T18:59:45.090Z,12.13
2018-09-09T19:02:13.270Z,10.37
2018-09-09T19:04:41.446Z,9.70
2018-09-09T19:07:09.625Z,9.03
2018-09-09T19:09:37.886Z,9.50
2018-09-09T19:12:06.547Z,8.87
2018-09-09T19:14:34.913Z,8.33
2018-09-09T19:17:03.168Z,8.73
2018-09-09T19:19:31.441Z,7.93
2018-09-09T19:21:59.633Z,9.10
2018-09-09T19:24:27.806Z,9.67
2018-09-09T19:26:55.998Z,8.40
2018-09-09T19:29:24.283Z,9.60
2018-09-09T19:31:52.534Z,9.33
2018-09-09T19:34:20.833Z,9.37
2018-09-09T19:36:49.001Z,8.60
2018-09-09T19:39:17.254Z,9.20
2018-09-09T19:41:45.569Z,8.90
2018-09-09T19:44:13.910Z,9.33
2018-09-09T19:46:42.047Z,10.33
2018-09-09T19:49:10.294Z,8.20
2018-09-09T19:51:38.509Z,8.60
2018-09-09T19:54:06.776Z,8.60
2018-09-09T19:56:34.961Z,8.97
2018-09-09T19:59:03.135Z,8.30
2018-09-09T20:01:31.340Z,9.20
2018-09-09T20:03:59.615Z,8.30
2018-09-09T20:06:27.807Z,8.60
2018-09-09T20:08:56.405Z,8.37
2018-09-09T20:11:24.586Z,8.23
2018-09-09T20:13:52.757Z,8.47
2018-09-09T20:16:21.055Z,8.40
2018-09-09T20:18:49.341Z,8.43
2018-09-09T20:21:17.533Z,7.87
2018-09-09T20:23:46.121Z,8.77
2018-09-09T20:26:14.345Z,7.80
2018-09-09T20:28:42.709Z,9.00
2018-09-09T20:31:10.909Z,9.27
2018-09-09T20:33:39.175Z,8.33
2018-09-09T20:36:07.353Z,7.67
2018-09-09T20:38:35.603Z,8.80
2018-09-09T20:41:03.867Z,7.60
2018-09-09T20:43:32.129Z,9.13
2018-09-09T20:46:00.341Z,9.90
2018-09-09T20:48:28.616Z,8.50
2018-09-09T20:50:56.899Z,8.90
2018-09-09T20:53:25.206Z,7.47
2018-09-09T20:55:53.485Z,8.70
2018-09-09T20:58:21.711Z,7.27
2018-09-09T21:00:49.917Z,8.40
2018-09-09T21:03:18.130Z,8.30
2018-09-09T21:05:46.306Z,7.57
2018-09-09T21:08:16.698Z,7.63
2018-09-09T21:10:44.925Z,8.07
2018-09-09T21:13:13.158Z,8.37
2018-09-09T21:15:41.389Z,8.87
2018-09-09T21:18:09.585Z,8.80
2018-09-09T21:20:38.401Z,8.73
2018-09-09T21:23:07.376Z,7.90
2018-09-09T21:25:35.797Z,7.80
2018-09-09T21:28:04.743Z,8.70
2018-09-09T21:30:33.316Z,8.60
2018-09-09T21:33:01.763Z,8.57
2018-09-09T21:35:30.090Z,9.00
2018-09-09T21:37:58.741Z,8.10
2018-09-09T21:40:26.999Z,9.20
2018-09-09T21:42:55.225Z,8.30
2018-09-09T21:45:23.495Z,8.47
2018-09-09T21:47:51.715Z,8.60
2018-09-09T21:50:19.885Z,8.50
2018-09-09T21:52:48.081Z,9.10
2018-09-09T21:55:16.275Z,8.90
2018-09-09T21:57:44.449Z,9.07
2018-09-09T22:03:52.933Z,9.00
2018-09-09T22:06:21.209Z,9.47
2018-09-09T22:08:49.393Z,8.43
2018-09-09T22:11:17.597Z,9.37
2018-09-09T22:13:45.902Z,9.23
2018-09-09T22:16:14.166Z,9.77
2018-09-09T22:18:42.449Z,10.00
2018-09-09T22:21:10.741Z,10.20
2018-09-09T22:23:39.054Z,9.33
2018-09-09T22:26:07.229Z,10.00
2018-09-09T22:28:35.565Z,9.57
2018-09-09T22:31:03.806Z,9.90
2018-09-09T22:33:32.073Z,9.70
2018-09-09T22:36:00.374Z,9.90
2018-09-09T22:38:28.588Z,9.13
2018-09-09T22:40:56.851Z,10.80
2018-09-09T22:43:25.257Z,10.70
2018-09-09T22:45:59.150Z,10.10
2018-09-09T22:48:28.273Z,10.33
2018-09-09T22:50:56.743Z,10.50
2018-09-09T22:53:24.946Z,9.37
2018-09-09T22:55:53.389Z,10.63
2018-09-09T22:58:21.645Z,10.57
2018-09-09T23:00:49.954Z,9.70
2018-09-09T23:03:23.453Z,11.37
2018-09-09T23:05:59.598Z,10.23
2018-09-09T23:08:33.513Z,11.50
2018-09-09T23:11:01.726Z,11.90
2018-09-09T23:13:30.006Z,11.07
2018-09-09T23:15:58.305Z,10.67
2018-09-09T23:18:26.581Z,10.27
2018-09-09T23:20:54.889Z,10.10
2018-09-09T23:23:23.375Z,11.27
2018-09-09T23:25:51.649Z,11.53
2018-09-09T23:28:19.941Z,11.80
2018-09-09T23:30:48.233Z,11.70
2018-09-09T23:33:16.518Z,9.77
2018-09-09T23:35:44.862Z,10.93
2018-09-09T23:38:13.101Z,11.20
2018-09-09T23:40:41.445Z,10.70
2018-09-09T23:43:09.686Z,11.03
2018-09-09T23:45:38.042Z,11.10
2018-09-09T23:48:06.263Z,11.00
2018-09-09T23:50:34.625Z,11.20
2018-09-09T23:53:02.857Z,11.70
2018-09-09T23:55:31.169Z,11.43
2018-09-09T23:57:59.695Z,11.50
